Terminal Aerodrome Forecast
Issued by NWS Charleston, WV

Current Version | Previous Version | Graphics & Text | Print | Product List | Glossary On
Versions: 1 2 3 4 5 6 7 8 9 10 11 12 13 14 15 16 17 18 19 20 21 22 23 24 25 26
000
FTUS41 KRLX 280538
TAFCRW
TAF
KCRW 280538Z 2806/2906 00000KT 6SM BR SCT200
     FM280700 00000KT 4SM BR SCT200
     FM280900 00000KT 1SM BR BKN001
     FM281200 00000KT 4SM BR SCT001
     FM281300 15005KT P6SM SCT045
     FM290000 00000KT P6SM SCT200=

USA.gov is the U.S. government's official web portal to all federal, state and local government web resources and services.